Time,TemperatureF,DewpointF,PressureIn,WindDirection,WindDirectionDegrees,WindSpeedMPH,WindSpeedGustMPH,Humidity,HourlyPrecipIn,Conditions,Clouds,dailyrainin,SoftwareType,DateUTC
2013-08-05 00:01:00,51.7,48.4,30.07,SSE,157,0.0,-999.0,88,-99.99,,,-99.99,MetarLogicWeatherSta,2013-08-05 04:01:00,
2013-08-05 00:06:00,51.7,48.4,30.07,SSE,157,0.0,-999.0,88,-99.99,,,-99.99,MetarLogicWeatherSta,2013-08-05 04:06:00,
2013-08-05 00:11:00,51.4,48.3,30.07,South,180,0.0,0.0,89,-99.99,,,-99.99,MetarLogicWeatherSta,2013-08-05 04:11:00,
2013-08-05 00:16:00,51.3,48.3,30.07,South,180,0.0,0.0,89,-99.99,,,-99.99,MetarLogicWeatherSta,2013-08-05 04:16:00,
2013-08-05 00:21:00,51.1,48.1,30.07,SSE,157,0.0,-999.0,89,-99.99,,,-99.99,MetarLogicWeatherSta,2013-08-05 04:21:00,
2013-08-05 00:26:00,51.2,48.3,30.07,SSE,157,0.0,-999.0,89,-99.99,,,-99.99,MetarLogicWeatherSta,2013-08-05 04:26:00,
2013-08-05 00:31:00,51.0,48.3,30.07,SSE,157,0.0,-999.0,90,-99.99,,,-99.99,MetarLogicWeatherSta,2013-08-05 04:31:00,
2013-08-05 00:36:00,51.1,48.3,30.07,SSE,157,0.0,-999.0,90,-99.99,,,-99.99,MetarLogicWeatherSta,2013-08-05 04:36:00,
2013-08-05 00:42:00,50.8,48.1,30.07,SSE,157,0.0,-999.0,90,-99.99,,,-99.99,MetarLogicWeatherSta,2013-08-05 04:42:00,
2013-08-05 00:47:00,50.8,48.0,30.07,SSE,157,0.0,-999.0,90,-99.99,,,-99.99,MetarLogicWeatherSta,2013-08-05 04:47:00,
2013-08-05 00:52:00,50.8,48.0,30.07,SSE,157,0.0,-999.0,90,-99.99,,,-99.99,MetarLogicWeatherSta,2013-08-05 04:52:00,
2013-08-05 00:57:00,50.7,48.2,30.07,SSE,157,0.0,-999.0,90,-99.99,,,-99.99,MetarLogicWeatherSta,2013-08-05 04:57:00,
2013-08-05 01:02:00,50.8,48.2,30.07,SSE,157,0.0,-999.0,90,-99.99,,,-99.99,MetarLogicWeatherSta,2013-08-05 05:02:00,
2013-08-05 01:07:00,50.5,48.0,30.07,SSE,157,0.0,-999.0,90,-99.99,,,-99.99,MetarLogicWeatherSta,2013-08-05 05:07:00,
2013-08-05 01:12:00,50.4,47.9,30.07,SSE,157,0.0,-999.0,90,-99.99,,,-99.99,MetarLogicWeatherSta,2013-08-05 05:12:00,
2013-08-05 01:17:00,50.3,47.9,30.07,SSE,157,0.0,-999.0,91,-99.99,,,-99.99,MetarLogicWeatherSta,2013-08-05 05:17:00,
2013-08-05 01:22:00,50.3,48.0,30.07,SSE,157,0.0,-999.0,91,-99.99,,,-99.99,MetarLogicWeatherSta,2013-08-05 05:22:00,
2013-08-05 01:27:00,50.2,47.7,30.07,SSE,157,0.0,-999.0,90,-99.99,,,-99.99,MetarLogicWeatherSta,2013-08-05 05:27:00,
2013-08-05 01:32:00,50.1,47.7,30.07,SSE,157,0.0,-999.0,91,-99.99,,,-99.99,MetarLogicWeatherSta,2013-08-05 05:32:00,
2013-08-05 01:37:00,50.1,47.7,30.07,SSE,157,0.0,-999.0,91,-99.99,,,-99.99,MetarLogicWeatherSta,2013-08-05 05:37:00,
2013-08-05 01:42:00,50.0,47.5,30.07,SSE,157,0.0,-999.0,91,-99.99,,,-99.99,MetarLogicWeatherSta,2013-08-05 05:42:00,
2013-08-05 01:47:00,49.5,47.2,30.07,SSE,157,0.0,-999.0,91,-99.99,,,-99.99,MetarLogicWeatherSta,2013-08-05 05:47:00,
2013-08-05 01:52:00,49.7,47.4,30.07,SSE,157,0.0,-999.0,91,-99.99,,,-99.99,MetarLogicWeatherSta,2013-08-05 05:52:00,
2013-08-05 01:57:00,49.5,47.3,30.07,SSE,157,0.0,-999.0,91,-99.99,,,-99.99,MetarLogicWeatherSta,2013-08-05 05:57:00,
2013-08-05 02:02:00,49.5,47.2,30.07,SSE,157,0.0,-999.0,91,-99.99,,,-99.99,MetarLogicWeatherSta,2013-08-05 06:02:00,
2013-08-05 02:07:00,49.4,47.3,30.07,SSE,157,0.0,-999.0,92,-99.99,,,-99.99,MetarLogicWeatherSta,2013-08-05 06:07:00,
2013-08-05 02:12:00,49.1,46.9,30.07,SSE,157,0.0,-999.0,92,-99.99,,,-99.99,MetarLogicWeatherSta,2013-08-05 06:12:00,
2013-08-05 02:17:00,49.2,47.0,30.07,SSE,157,0.0,-999.0,92,-99.99,,,-99.99,MetarLogicWeatherSta,2013-08-05 06:17:00,
2013-08-05 02:22:00,49.1,46.9,30.07,SSE,157,0.0,-999.0,92,-99.99,,,-99.99,MetarLogicWeatherSta,2013-08-05 06:22:00,
2013-08-05 02:27:00,48.8,46.7,30.07,SSE,157,0.0,-999.0,92,-99.99,,,-99.99,MetarLogicWeatherSta,2013-08-05 06:27:00,
2013-08-05 02:32:00,48.8,46.7,30.07,SSE,157,0.0,-999.0,92,-99.99,,,-99.99,MetarLogicWeatherSta,2013-08-05 06:32:00,
2013-08-05 03:13:00,48.2,46.4,30.07,South,180,0.0,0.0,93,-99.99,,,-99.99,MetarLogicWeatherSta,2013-08-05 07:13:00,
2013-08-05 03:18:00,47.9,46.1,30.07,SSE,157,0.0,-999.0,93,-99.99,,,-99.99,MetarLogicWeatherSta,2013-08-05 07:18:00,
2013-08-05 03:23:00,47.9,46.1,30.07,SSE,157,0.0,-999.0,93,-99.99,,,-99.99,MetarLogicWeatherSta,2013-08-05 07:23:00,
2013-08-05 03:28:00,47.8,45.9,30.07,SSE,157,0.0,-999.0,93,-99.99,,,-99.99,MetarLogicWeatherSta,2013-08-05 07:28:00,
2013-08-05 03:33:00,47.8,45.9,30.08,SSE,157,0.0,-999.0,93,-99.99,,,-99.99,MetarLogicWeatherSta,2013-08-05 07:33:00,
2013-08-05 03:40:00,47.7,45.8,30.08,SSE,157,0.0,-999.0,93,-99.99,,,-99.99,MetarLogicWeatherSta,2013-08-05 07:40:00,
2013-08-05 03:45:00,47.6,45.8,30.07,SSE,157,0.0,-999.0,93,-99.99,,,-99.99,MetarLogicWeatherSta,2013-08-05 07:45:00,
2013-08-05 03:50:00,47.6,45.8,30.08,SSE,157,0.0,-999.0,93,-99.99,,,-99.99,MetarLogicWeatherSta,2013-08-05 07:50:00,
2013-08-05 03:55:00,47.4,45.7,30.08,South,180,0.0,-999.0,93,-99.99,,,-99.99,MetarLogicWeatherSta,2013-08-05 07:55:00,
2013-08-05 04:00:00,47.3,45.6,30.08,SSE,157,0.0,-999.0,93,-99.99,,,-99.99,MetarLogicWeatherSta,2013-08-05 08:00:00,
2013-08-05 04:08:00,47.4,45.7,30.08,SSE,157,0.0,-999.0,94,-99.99,,,-99.99,MetarLogicWeatherSta,2013-08-05 08:08:00,
2013-08-05 04:13:00,47.2,45.4,30.08,SSE,157,0.0,-999.0,93,-99.99,,,-99.99,MetarLogicWeatherSta,2013-08-05 08:13:00,
2013-08-05 04:18:00,47.3,45.6,30.09,SSE,157,0.0,-999.0,93,-99.99,,,-99.99,MetarLogicWeatherSta,2013-08-05 08:18:00,
2013-08-05 04:23:00,47.1,45.3,30.08,SSE,157,0.0,-999.0,93,-99.99,,,-99.99,MetarLogicWeatherSta,2013-08-05 08:23:00,
2013-08-05 04:28:00,46.8,45.2,30.08,SSE,157,0.0,-999.0,94,-99.99,,,-99.99,MetarLogicWeatherSta,2013-08-05 08:28:00,
2013-08-05 04:33:00,47.1,45.5,30.08,SSE,157,0.0,-999.0,94,-99.99,,,-99.99,MetarLogicWeatherSta,2013-08-05 08:33:00,
2013-08-05 04:38:00,47.1,45.5,30.08,SSE,157,0.0,-999.0,94,-99.99,,,-99.99,MetarLogicWeatherSta,2013-08-05 08:38:00,
2013-08-05 04:43:00,47.0,45.3,30.09,SSE,157,0.0,-999.0,94,-99.99,,,-99.99,MetarLogicWeatherSta,2013-08-05 08:43:00,
2013-08-05 04:48:00,46.8,45.3,30.09,SSE,157,0.0,-999.0,94,-99.99,,,-99.99,MetarLogicWeatherSta,2013-08-05 08:48:00,
2013-08-05 04:53:00,47.0,45.4,30.09,SSE,157,0.0,-999.0,94,-99.99,,,-99.99,MetarLogicWeatherSta,2013-08-05 08:53:00,
2013-08-05 04:58:00,46.8,45.4,30.09,SSE,157,0.0,-999.0,94,-99.99,,,-99.99,MetarLogicWeatherSta,2013-08-05 08:58:00,
2013-08-05 05:03:00,46.8,45.5,30.09,SSE,157,0.0,-999.0,95,-99.99,,,-99.99,MetarLogicWeatherSta,2013-08-05 09:03:00,
2013-08-05 05:08:00,47.1,45.7,30.09,South,180,0.0,-999.0,95,-99.99,,,-99.99,MetarLogicWeatherSta,2013-08-05 09:08:00,
2013-08-05 05:13:00,47.0,45.5,30.09,SSE,157,0.0,-999.0,94,-99.99,,,-99.99,MetarLogicWeatherSta,2013-08-05 09:13:00,
2013-08-05 05:18:00,47.3,45.9,30.09,SSE,157,0.0,-999.0,94,-99.99,,,-99.99,MetarLogicWeatherSta,2013-08-05 09:18:00,
2013-08-05 05:23:00,47.4,46.2,30.09,SSE,157,0.0,-999.0,95,-99.99,,,-99.99,MetarLogicWeatherSta,2013-08-05 09:23:00,
2013-08-05 05:28:00,47.5,46.1,30.10,SSE,157,0.0,-999.0,94,-99.99,,,-99.99,MetarLogicWeatherSta,2013-08-05 09:28:00,
2013-08-05 05:33:00,47.5,46.2,30.10,SSE,157,0.0,-999.0,95,-99.99,,,-99.99,MetarLogicWeatherSta,2013-08-05 09:33:00,
2013-08-05 05:38:00,47.7,46.3,30.10,SSE,157,0.0,-999.0,94,-99.99,,,-99.99,MetarLogicWeatherSta,2013-08-05 09:38:00,
2013-08-05 05:43:00,47.5,46.2,30.10,SSE,157,0.0,-999.0,95,-99.99,,,-99.99,MetarLogicWeatherSta,2013-08-05 09:43:00,
2013-08-05 05:48:00,47.6,46.3,30.10,SSE,157,0.0,-999.0,95,-99.99,,,-99.99,MetarLogicWeatherSta,2013-08-05 09:48:00,
2013-08-05 05:53:00,47.8,46.5,30.10,SSE,157,0.0,-999.0,95,-99.99,,,-99.99,MetarLogicWeatherSta,2013-08-05 09:53:00,
2013-08-05 05:58:00,47.7,46.3,30.10,SSE,157,0.0,-999.0,94,-99.99,,,-99.99,MetarLogicWeatherSta,2013-08-05 09:58:00,
2013-08-05 06:03:00,47.7,46.4,30.10,SSE,157,0.0,-999.0,95,-99.99,,,-99.99,MetarLogicWeatherSta,2013-08-05 10:03:00,
2013-08-05 06:08:00,47.8,46.6,30.11,SSE,157,0.0,-999.0,95,-99.99,,,-99.99,MetarLogicWeatherSta,2013-08-05 10:08:00,
2013-08-05 06:13:00,47.6,46.3,30.11,SSE,157,0.0,-999.0,95,-99.99,,,-99.99,MetarLogicWeatherSta,2013-08-05 10:13:00,
2013-08-05 06:18:00,48.0,46.8,30.11,SSE,157,0.0,-999.0,95,-99.99,,,-99.99,MetarLogicWeatherSta,2013-08-05 10:18:00,
2013-08-05 06:23:00,47.8,46.7,30.11,SSE,157,0.0,-999.0,95,-99.99,,,-99.99,MetarLogicWeatherSta,2013-08-05 10:23:00,
2013-08-05 06:28:00,47.9,46.7,30.11,SSE,157,0.0,-999.0,95,-99.99,,,-99.99,MetarLogicWeatherSta,2013-08-05 10:28:00,
2013-08-05 06:33:00,47.6,46.3,30.11,SSE,157,0.0,-999.0,95,-99.99,,,-99.99,MetarLogicWeatherSta,2013-08-05 10:33:00,
2013-08-05 06:38:00,47.9,46.5,30.11,SSE,157,0.0,-999.0,95,-99.99,,,-99.99,MetarLogicWeatherSta,2013-08-05 10:38:00,
2013-08-05 06:43:00,47.9,46.6,30.11,SSE,157,0.0,-999.0,95,-99.99,,,-99.99,MetarLogicWeatherSta,2013-08-05 10:43:00,
2013-08-05 06:48:00,47.6,46.4,30.11,SSE,157,0.0,-999.0,95,-99.99,,,-99.99,MetarLogicWeatherSta,2013-08-05 10:48:00,
2013-08-05 06:53:00,47.8,46.7,30.11,South,180,0.0,-999.0,95,-99.99,,,-99.99,MetarLogicWeatherSta,2013-08-05 10:53:00,
2013-08-05 06:58:00,48.2,47.2,30.11,SSE,157,0.0,-999.0,96,-99.99,,,-99.99,MetarLogicWeatherSta,2013-08-05 10:58:00,
2013-08-05 07:03:00,48.5,47.5,30.11,SSE,157,0.0,-999.0,96,-99.99,,,-99.99,MetarLogicWeatherSta,2013-08-05 11:03:00,
2013-08-05 07:08:00,48.9,48.0,30.11,SSE,157,0.0,-999.0,96,-99.99,,,-99.99,MetarLogicWeatherSta,2013-08-05 11:08:00,
2013-08-05 07:13:00,49.0,48.2,30.11,SSE,157,0.0,-999.0,97,-99.99,,,-99.99,MetarLogicWeatherSta,2013-08-05 11:13:00,
2013-08-05 07:18:00,49.7,48.7,30.11,SSE,157,0.0,-999.0,96,-99.99,,,-99.99,MetarLogicWeatherSta,2013-08-05 11:18:00,
2013-08-05 07:23:00,50.1,49.1,30.11,SSE,157,0.0,-999.0,96,-99.99,,,-99.99,MetarLogicWeatherSta,2013-08-05 11:23:00,
2013-08-05 07:28:00,50.4,49.4,30.11,SSE,157,0.0,-999.0,96,-99.99,,,-99.99,MetarLogicWeatherSta,2013-08-05 11:28:00,
2013-08-05 07:33:00,50.8,49.9,30.12,SSE,157,0.0,-999.0,96,-99.99,,,-99.99,MetarLogicWeatherSta,2013-08-05 11:33:00,
2013-08-05 07:38:00,51.2,50.3,30.12,South,180,0.0,-999.0,96,-99.99,,,-99.99,MetarLogicWeatherSta,2013-08-05 11:38:00,
2013-08-05 07:43:00,51.5,50.6,30.12,South,180,0.0,-999.0,96,-99.99,,,-99.99,MetarLogicWeatherSta,2013-08-05 11:43:00,
2013-08-05 07:48:00,51.9,51.0,30.12,South,180,0.0,-999.0,96,-99.99,,,-99.99,MetarLogicWeatherSta,2013-08-05 11:48:00,
2013-08-05 07:53:00,52.5,51.6,30.12,SSE,157,0.0,-999.0,96,-99.99,,,-99.99,MetarLogicWeatherSta,2013-08-05 11:53:00,
2013-08-05 07:58:00,52.8,52.0,30.11,SSE,157,0.0,-999.0,97,-99.99,,,-99.99,MetarLogicWeatherSta,2013-08-05 11:58:00,
2013-08-05 08:03:00,53.0,52.4,30.12,SSE,157,0.0,-999.0,97,-99.99,,,-99.99,MetarLogicWeatherSta,2013-08-05 12:03:00,
2013-08-05 08:11:00,53.5,52.6,30.12,South,180,0.0,-999.0,96,-99.99,,,-99.99,MetarLogicWeatherSta,2013-08-05 12:11:00,
2013-08-05 08:16:00,54.4,53.6,30.12,SSE,157,0.0,-999.0,97,-99.99,,,-99.99,MetarLogicWeatherSta,2013-08-05 12:16:00,
2013-08-05 08:21:00,54.9,54.2,30.12,South,180,3.0,-999.0,97,-99.99,,,-99.99,MetarLogicWeatherSta,2013-08-05 12:21:00,
2013-08-05 08:26:00,55.8,55.1,30.12,SSE,157,0.0,-999.0,97,-99.99,,,-99.99,MetarLogicWeatherSta,2013-08-05 12:26:00,
2013-08-05 08:31:00,57.0,56.1,30.13,SSE,157,0.0,-999.0,97,-99.99,,,-99.99,MetarLogicWeatherSta,2013-08-05 12:31:00,
2013-08-05 08:36:00,57.9,56.7,30.12,South,180,0.0,-999.0,95,-99.99,,,-99.99,MetarLogicWeatherSta,2013-08-05 12:36:00,
2013-08-05 08:41:00,59.0,58.0,30.13,South,180,0.0,-999.0,96,-99.99,,,-99.99,MetarLogicWeatherSta,2013-08-05 12:41:00,
2013-08-05 08:46:00,59.7,58.3,30.13,South,180,0.0,-999.0,95,-99.99,,,-99.99,MetarLogicWeatherSta,2013-08-05 12:46:00,
2013-08-05 08:51:00,60.4,58.9,30.13,South,180,0.0,-999.0,94,-99.99,,,-99.99,MetarLogicWeatherSta,2013-08-05 12:51:00,
2013-08-05 08:56:00,61.0,59.5,30.13,SSE,157,0.0,-999.0,94,-99.99,,,-99.99,MetarLogicWeatherSta,2013-08-05 12:56:00,
2013-08-05 09:03:00,61.7,60.1,30.13,SSE,157,0.0,-999.0,94,-99.99,,,-99.99,MetarLogicWeatherSta,2013-08-05 13:03:00,
2013-08-05 09:08:00,62.5,59.5,30.13,South,180,0.0,-999.0,89,-99.99,,,-99.99,MetarLogicWeatherSta,2013-08-05 13:08:00,
2013-08-05 09:13:00,62.9,59.3,30.12,SSE,157,0.0,-999.0,87,-99.99,,,-99.99,MetarLogicWeatherSta,2013-08-05 13:13:00,
2013-08-05 09:18:00,63.6,59.9,30.13,South,180,0.0,-999.0,87,-99.99,,,-99.99,MetarLogicWeatherSta,2013-08-05 13:18:00,
2013-08-05 09:23:00,64.2,60.1,30.12,South,180,0.0,-999.0,86,-99.99,,,-99.99,MetarLogicWeatherSta,2013-08-05 13:23:00,
2013-08-05 09:28:00,64.7,59.9,30.12,SSE,157,0.0,-999.0,84,-99.99,,,-99.99,MetarLogicWeatherSta,2013-08-05 13:28:00,
2013-08-05 09:33:00,65.4,60.2,30.13,South,180,0.0,-999.0,83,-99.99,,,-99.99,MetarLogicWeatherSta,2013-08-05 13:33:00,
2013-08-05 09:38:00,65.9,60.1,30.12,SSW,202,0.0,-999.0,81,-99.99,,,-99.99,MetarLogicWeatherSta,2013-08-05 13:38:00,
2013-08-05 09:43:00,66.3,59.9,30.13,South,180,0.0,-999.0,79,-99.99,,,-99.99,MetarLogicWeatherSta,2013-08-05 13:43:00,
2013-08-05 09:48:00,66.3,59.7,30.12,South,180,0.0,-999.0,79,-99.99,,,-99.99,MetarLogicWeatherSta,2013-08-05 13:48:00,
2013-08-05 09:53:00,66.3,59.7,30.12,South,180,0.0,-999.0,79,-99.99,,,-99.99,MetarLogicWeatherSta,2013-08-05 13:53:00,
2013-08-05 09:58:00,66.4,59.4,30.12,NE,45,1.0,-999.0,77,-99.99,,,-99.99,MetarLogicWeatherSta,2013-08-05 13:58:00,
2013-08-05 10:03:00,67.0,60.4,30.12,South,180,0.0,-999.0,79,-99.99,,,-99.99,MetarLogicWeatherSta,2013-08-05 14:03:00,
2013-08-05 10:08:00,67.6,60.4,30.12,South,180,0.0,-999.0,77,-99.99,,,-99.99,MetarLogicWeatherSta,2013-08-05 14:08:00,
2013-08-05 10:13:00,67.3,59.7,30.12,South,180,0.0,-999.0,76,-99.99,,,-99.99,MetarLogicWeatherSta,2013-08-05 14:13:00,
2013-08-05 10:18:00,67.3,59.7,30.12,South,180,0.0,-999.0,76,-99.99,,,-99.99,MetarLogicWeatherSta,2013-08-05 14:18:00,
2013-08-05 10:23:00,66.9,58.8,30.13,South,180,0.0,-999.0,75,-99.99,,,-99.99,MetarLogicWeatherSta,2013-08-05 14:23:00,
2013-08-05 10:28:00,66.6,59.1,30.13,South,180,1.0,-999.0,76,-99.99,,,-99.99,MetarLogicWeatherSta,2013-08-05 14:28:00,
2013-08-05 10:33:00,66.5,58.6,30.13,South,180,0.0,-999.0,75,-99.99,,,-99.99,MetarLogicWeatherSta,2013-08-05 14:33:00,
2013-08-05 10:38:00,66.6,59.1,30.12,SSE,157,0.0,-999.0,76,-99.99,,,-99.99,MetarLogicWeatherSta,2013-08-05 14:38:00,
2013-08-05 10:43:00,67.3,58.8,30.12,ESE,112,0.0,-999.0,74,-99.99,,,-99.99,MetarLogicWeatherSta,2013-08-05 14:43:00,
2013-08-05 10:48:00,67.3,58.7,30.13,South,180,0.0,-999.0,73,-99.99,,,-99.99,MetarLogicWeatherSta,2013-08-05 14:48:00,
2013-08-05 10:53:00,67.4,58.0,30.12,SSE,157,0.0,-999.0,71,-99.99,,,-99.99,MetarLogicWeatherSta,2013-08-05 14:53:00,
2013-08-05 10:58:00,67.9,57.9,30.12,South,180,0.0,-999.0,69,-99.99,,,-99.99,MetarLogicWeatherSta,2013-08-05 14:58:00,
2013-08-05 11:03:00,67.9,57.0,30.12,ESE,112,1.0,-999.0,67,-99.99,,,-99.99,MetarLogicWeatherSta,2013-08-05 15:03:00,
2013-08-05 11:08:00,68.4,57.7,30.11,SE,135,0.0,-999.0,68,-99.99,,,-99.99,MetarLogicWeatherSta,2013-08-05 15:08:00,
2013-08-05 11:13:00,68.5,58.3,30.12,South,180,1.0,-999.0,69,-99.99,,,-99.99,MetarLogicWeatherSta,2013-08-05 15:13:00,
2013-08-05 11:18:00,69.0,57.7,30.11,South,180,0.0,-999.0,67,-99.99,,,-99.99,MetarLogicWeatherSta,2013-08-05 15:18:00,
2013-08-05 11:23:00,69.1,58.0,30.11,SSW,202,1.0,-999.0,67,-99.99,,,-99.99,MetarLogicWeatherSta,2013-08-05 15:23:00,
2013-08-05 11:28:00,69.4,57.4,30.11,South,180,0.0,-999.0,65,-99.99,,,-99.99,MetarLogicWeatherSta,2013-08-05 15:28:00,
2013-08-05 11:33:00,69.2,57.0,30.11,South,180,0.0,-999.0,64,-99.99,,,-99.99,MetarLogicWeatherSta,2013-08-05 15:33:00,
2013-08-05 11:38:00,68.6,56.7,30.11,SE,135,1.0,-999.0,65,-99.99,,,-99.99,MetarLogicWeatherSta,2013-08-05 15:38:00,
2013-08-05 11:43:00,68.3,56.3,30.11,SSE,157,0.0,-999.0,65,-99.99,,,-99.99,MetarLogicWeatherSta,2013-08-05 15:43:00,
2013-08-05 11:48:00,67.7,55.7,30.11,South,180,0.0,-999.0,65,-99.99,,,-99.99,MetarLogicWeatherSta,2013-08-05 15:48:00,
2013-08-05 11:53:00,68.0,56.8,30.11,South,180,0.0,-999.0,66,-99.99,,,-99.99,MetarLogicWeatherSta,2013-08-05 15:53:00,
2013-08-05 11:58:00,68.7,57.2,30.11,South,180,0.0,-999.0,66,-99.99,,,-99.99,MetarLogicWeatherSta,2013-08-05 15:58:00,
2013-08-05 12:03:00,69.7,58.1,30.10,South,180,1.0,-999.0,66,-99.99,,,-99.99,MetarLogicWeatherSta,2013-08-05 16:03:00,
2013-08-05 12:08:00,69.7,56.4,30.10,South,180,0.0,-999.0,62,-99.99,,,-99.99,MetarLogicWeatherSta,2013-08-05 16:08:00,
2013-08-05 12:13:00,69.0,56.3,30.11,South,180,0.0,-999.0,63,-99.99,,,-99.99,MetarLogicWeatherSta,2013-08-05 16:13:00,
2013-08-05 12:18:00,68.1,56.3,30.11,SSE,157,0.0,-999.0,65,-99.99,,,-99.99,MetarLogicWeatherSta,2013-08-05 16:18:00,
2013-08-05 12:23:00,68.0,56.2,30.10,South,180,0.0,-999.0,65,-99.99,,,-99.99,MetarLogicWeatherSta,2013-08-05 16:23:00,
2013-08-05 12:28:00,68.4,55.7,30.10,SSW,202,0.0,-999.0,63,-99.99,,,-99.99,MetarLogicWeatherSta,2013-08-05 16:28:00,
2013-08-05 12:33:00,69.3,55.3,30.10,South,180,0.0,-999.0,60,-99.99,,,-99.99,MetarLogicWeatherSta,2013-08-05 16:33:00,
2013-08-05 12:38:00,70.2,55.6,30.09,SSW,202,0.0,-999.0,59,-99.99,,,-99.99,MetarLogicWeatherSta,2013-08-05 16:38:00,
2013-08-05 12:43:00,70.6,56.0,30.10,SSW,202,1.0,-999.0,59,-99.99,,,-99.99,MetarLogicWeatherSta,2013-08-05 16:43:00,
2013-08-05 12:48:00,71.0,54.6,30.09,SSW,202,1.0,-999.0,55,-99.99,,,-99.99,MetarLogicWeatherSta,2013-08-05 16:48:00,
2013-08-05 12:53:00,71.2,54.9,30.09,South,180,0.0,-999.0,55,-99.99,,,-99.99,MetarLogicWeatherSta,2013-08-05 16:53:00,
2013-08-05 12:58:00,71.3,54.3,30.09,South,180,0.0,-999.0,54,-99.99,,,-99.99,MetarLogicWeatherSta,2013-08-05 16:58:00,
2013-08-05 13:03:00,71.8,54.0,30.09,SSE,157,0.0,-999.0,52,-99.99,,,-99.99,MetarLogicWeatherSta,2013-08-05 17:03:00,
2013-08-05 13:08:00,72.1,53.8,30.09,South,180,0.0,-999.0,52,-99.99,,,-99.99,MetarLogicWeatherSta,2013-08-05 17:08:00,
2013-08-05 13:13:00,72.3,55.2,30.09,SSE,157,0.0,-999.0,54,-99.99,,,-99.99,MetarLogicWeatherSta,2013-08-05 17:13:00,
2013-08-05 13:20:00,72.8,54.0,30.09,South,180,0.0,-999.0,51,-99.99,,,-99.99,MetarLogicWeatherSta,2013-08-05 17:20:00,
2013-08-05 13:25:00,72.9,53.7,30.08,NW,315,4.0,-999.0,50,-99.99,,,-99.99,MetarLogicWeatherSta,2013-08-05 17:25:00,
2013-08-05 13:30:00,72.8,53.1,30.08,South,180,0.0,-999.0,49,-99.99,,,-99.99,MetarLogicWeatherSta,2013-08-05 17:30:00,
2013-08-05 13:35:00,72.8,54.1,30.08,South,180,0.0,-999.0,51,-99.99,,,-99.99,MetarLogicWeatherSta,2013-08-05 17:35:00,
2013-08-05 13:40:00,72.5,54.2,30.08,South,180,0.0,-999.0,52,-99.99,,,-99.99,MetarLogicWeatherSta,2013-08-05 17:40:00,
2013-08-05 13:45:00,72.6,54.7,30.07,SE,135,0.0,-999.0,52,-99.99,,,-99.99,MetarLogicWeatherSta,2013-08-05 17:45:00,
2013-08-05 13:50:00,72.7,54.7,30.07,South,180,0.0,-999.0,52,-99.99,,,-99.99,MetarLogicWeatherSta,2013-08-05 17:50:00,
2013-08-05 13:55:00,73.5,56.2,30.07,South,180,0.0,-999.0,54,-99.99,,,-99.99,MetarLogicWeatherSta,2013-08-05 17:55:00,
2013-08-05 14:01:00,73.8,54.2,30.07,South,180,0.0,3.0,49,-99.99,,,-99.99,MetarLogicWeatherSta,2013-08-05 18:01:00,
2013-08-05 14:06:00,73.5,52.9,30.07,South,180,0.0,-999.0,48,-99.99,,,-99.99,MetarLogicWeatherSta,2013-08-05 18:06:00,
2013-08-05 14:11:00,72.9,54.0,30.07,South,180,0.0,-999.0,50,-99.99,,,-99.99,MetarLogicWeatherSta,2013-08-05 18:11:00,
2013-08-05 14:16:00,73.5,53.7,30.07,South,180,0.0,-999.0,49,-99.99,,,-99.99,MetarLogicWeatherSta,2013-08-05 18:16:00,
2013-08-05 14:21:00,73.3,53.8,30.07,SSE,157,0.0,-999.0,49,-99.99,,,-99.99,MetarLogicWeatherSta,2013-08-05 18:21:00,
2013-08-05 14:26:00,72.4,53.0,30.07,SSW,202,0.0,-999.0,50,-99.99,,,-99.99,MetarLogicWeatherSta,2013-08-05 18:26:00,
2013-08-05 14:31:00,71.3,54.6,30.07,SSE,157,0.0,-999.0,55,-99.99,,,-99.99,MetarLogicWeatherSta,2013-08-05 18:31:00,
2013-08-05 14:36:00,71.2,54.5,30.07,South,180,0.0,-999.0,55,-99.99,,,-99.99,MetarLogicWeatherSta,2013-08-05 18:36:00,
2013-08-05 14:42:00,71.4,52.5,30.07,SE,135,0.0,-999.0,50,-99.99,,,-99.99,MetarLogicWeatherSta,2013-08-05 18:42:00,
2013-08-05 14:47:00,73.1,53.2,30.07,South,180,0.0,-999.0,49,-99.99,,,-99.99,MetarLogicWeatherSta,2013-08-05 18:47:00,
2013-08-05 14:52:00,73.7,52.6,30.06,SW,225,0.0,-999.0,47,-99.99,,,-99.99,MetarLogicWeatherSta,2013-08-05 18:52:00,
2013-08-05 14:57:00,74.2,52.2,30.06,WSW,247,1.0,-999.0,45,-99.99,,,-99.99,MetarLogicWeatherSta,2013-08-05 18:57:00,
2013-08-05 15:02:00,73.3,52.7,30.06,South,180,0.0,-999.0,47,-99.99,,,-99.99,MetarLogicWeatherSta,2013-08-05 19:02:00,
2013-08-05 15:10:00,71.9,52.2,30.06,South,180,0.0,-999.0,49,-99.99,,,-99.99,MetarLogicWeatherSta,2013-08-05 19:10:00,
2013-08-05 15:15:00,70.0,52.6,30.07,South,180,0.0,-999.0,53,-99.99,,,-99.99,MetarLogicWeatherSta,2013-08-05 19:15:00,
2013-08-05 15:20:00,69.5,53.2,30.06,South,180,0.0,-999.0,55,-99.99,,,-99.99,MetarLogicWeatherSta,2013-08-05 19:20:00,
2013-08-05 15:25:00,68.7,53.6,30.06,South,180,0.0,-999.0,58,-99.99,,,-99.99,MetarLogicWeatherSta,2013-08-05 19:25:00,
2013-08-05 15:30:00,68.3,54.0,30.06,SSE,157,0.0,-999.0,59,-99.99,,,-99.99,MetarLogicWeatherSta,2013-08-05 19:30:00,
2013-08-05 15:35:00,68.0,54.7,30.07,SSE,157,0.0,-999.0,62,-99.99,,,-99.99,MetarLogicWeatherSta,2013-08-05 19:35:00,
2013-08-05 15:40:00,68.6,56.4,30.06,SE,135,0.0,-999.0,64,-99.99,,,-99.99,MetarLogicWeatherSta,2013-08-05 19:40:00,
2013-08-05 15:45:00,69.7,55.0,30.05,ENE,67,0.0,-999.0,59,-99.99,,,-99.99,MetarLogicWeatherSta,2013-08-05 19:45:00,
2013-08-05 15:50:00,70.9,53.7,30.06,South,180,0.0,-999.0,54,-99.99,,,-99.99,MetarLogicWeatherSta,2013-08-05 19:50:00,
2013-08-05 15:55:00,71.4,55.0,30.06,SSE,157,0.0,-999.0,55,-99.99,,,-99.99,MetarLogicWeatherSta,2013-08-05 19:55:00,
2013-08-05 16:00:00,71.7,55.0,30.05,South,180,0.0,-999.0,55,-99.99,,,-99.99,MetarLogicWeatherSta,2013-08-05 20:00:00,
2013-08-05 16:05:00,71.7,54.0,30.05,South,180,0.0,-999.0,53,-99.99,,,-99.99,MetarLogicWeatherSta,2013-08-05 20:05:00,
2013-08-05 16:10:00,71.9,53.5,30.05,South,180,0.0,-999.0,51,-99.99,,,-99.99,MetarLogicWeatherSta,2013-08-05 20:10:00,
2013-08-05 16:15:00,71.6,53.0,30.05,South,180,0.0,-999.0,51,-99.99,,,-99.99,MetarLogicWeatherSta,2013-08-05 20:15:00,
2013-08-05 16:20:00,71.2,51.2,30.05,South,180,0.0,-999.0,48,-99.99,,,-99.99,MetarLogicWeatherSta,2013-08-05 20:20:00,
2013-08-05 16:25:00,70.6,52.5,30.05,SSE,157,0.0,-999.0,52,-99.99,,,-99.99,MetarLogicWeatherSta,2013-08-05 20:25:00,
2013-08-05 16:30:00,70.5,52.8,30.05,South,180,0.0,-999.0,52,-99.99,,,-99.99,MetarLogicWeatherSta,2013-08-05 20:30:00,
2013-08-05 16:35:00,70.0,52.3,30.05,South,180,0.0,-999.0,52,-99.99,,,-99.99,MetarLogicWeatherSta,2013-08-05 20:35:00,
2013-08-05 16:40:00,69.8,52.5,30.05,South,180,0.0,-999.0,53,-99.99,,,-99.99,MetarLogicWeatherSta,2013-08-05 20:40:00,
2013-08-05 16:45:00,69.9,54.0,30.05,South,180,0.0,-999.0,56,-99.99,,,-99.99,MetarLogicWeatherSta,2013-08-05 20:45:00,
2013-08-05 16:50:00,69.6,53.7,30.05,South,180,0.0,-999.0,56,-99.99,,,-99.99,MetarLogicWeatherSta,2013-08-05 20:50:00,
2013-08-05 16:55:00,69.5,53.0,30.05,SSE,157,0.0,-999.0,55,-99.99,,,-99.99,MetarLogicWeatherSta,2013-08-05 20:55:00,
2013-08-05 17:00:00,69.3,53.1,30.05,SSE,157,0.0,-999.0,55,-99.99,,,-99.99,MetarLogicWeatherSta,2013-08-05 21:00:00,
2013-08-05 17:05:00,69.4,52.8,30.05,South,180,0.0,-999.0,55,-99.99,,,-99.99,MetarLogicWeatherSta,2013-08-05 21:05:00,
2013-08-05 17:10:00,69.4,52.5,30.05,SSE,157,0.0,-999.0,54,-99.99,,,-99.99,MetarLogicWeatherSta,2013-08-05 21:10:00,
2013-08-05 17:15:00,69.7,52.7,30.05,SSW,202,0.0,-999.0,54,-99.99,,,-99.99,MetarLogicWeatherSta,2013-08-05 21:15:00,
2013-08-05 17:20:00,69.5,53.2,30.05,SSE,157,0.0,-999.0,55,-99.99,,,-99.99,MetarLogicWeatherSta,2013-08-05 21:20:00,
2013-08-05 17:26:00,69.4,53.2,30.05,SSW,200,0.0,0.0,55,-99.99,,,-99.99,MetarLogicWeatherSta,2013-08-05 21:26:00,
2013-08-05 17:31:00,69.3,54.0,30.05,SSE,157,0.0,-999.0,57,-99.99,,,-99.99,MetarLogicWeatherSta,2013-08-05 21:31:00,
2013-08-05 17:36:00,69.3,53.8,30.05,South,180,0.0,-999.0,57,-99.99,,,-99.99,MetarLogicWeatherSta,2013-08-05 21:36:00,
2013-08-05 17:41:00,69.1,53.8,30.05,South,180,0.0,-999.0,57,-99.99,,,-99.99,MetarLogicWeatherSta,2013-08-05 21:41:00,
2013-08-05 17:46:00,69.0,54.0,30.05,South,180,0.0,-999.0,58,-99.99,,,-99.99,MetarLogicWeatherSta,2013-08-05 21:46:00,
2013-08-05 17:51:00,68.8,54.3,30.05,South,180,0.0,-999.0,59,-99.99,,,-99.99,MetarLogicWeatherSta,2013-08-05 21:51:00,
2013-08-05 17:56:00,68.8,54.5,30.05,SSE,157,0.0,-999.0,59,-99.99,,,-99.99,MetarLogicWeatherSta,2013-08-05 21:56:00,
2013-08-05 18:01:00,68.5,53.6,30.05,SSE,157,0.0,-999.0,58,-99.99,,,-99.99,MetarLogicWeatherSta,2013-08-05 22:01:00,
2013-08-05 18:06:00,68.3,53.2,30.05,South,180,0.0,-999.0,58,-99.99,,,-99.99,MetarLogicWeatherSta,2013-08-05 22:06:00,
2013-08-05 18:11:00,68.3,52.8,30.05,South,180,0.0,-999.0,57,-99.99,,,-99.99,MetarLogicWeatherSta,2013-08-05 22:11:00,
2013-08-05 18:16:00,68.0,52.1,30.05,South,180,0.0,-999.0,56,-99.99,,,-99.99,MetarLogicWeatherSta,2013-08-05 22:16:00,
2013-08-05 18:21:00,67.9,52.4,30.05,South,180,0.0,-999.0,57,-99.99,,,-99.99,MetarLogicWeatherSta,2013-08-05 22:21:00,
2013-08-05 18:26:00,67.8,52.9,30.05,South,180,0.0,-999.0,58,-99.99,,,-99.99,MetarLogicWeatherSta,2013-08-05 22:26:00,
2013-08-05 18:31:00,67.8,52.8,30.05,SSE,157,0.0,-999.0,58,-99.99,,,-99.99,MetarLogicWeatherSta,2013-08-05 22:31:00,
2013-08-05 18:36:00,67.8,53.5,30.04,South,180,0.0,-999.0,59,-99.99,,,-99.99,MetarLogicWeatherSta,2013-08-05 22:36:00,
2013-08-05 18:41:00,67.6,53.8,30.04,South,180,0.0,-999.0,60,-99.99,,,-99.99,MetarLogicWeatherSta,2013-08-05 22:41:00,
2013-08-05 18:46:00,67.5,53.8,30.05,South,180,0.0,-999.0,61,-99.99,,,-99.99,MetarLogicWeatherSta,2013-08-05 22:46:00,
2013-08-05 18:51:00,67.3,54.0,30.05,SSE,157,0.0,-999.0,62,-99.99,,,-99.99,MetarLogicWeatherSta,2013-08-05 22:51:00,
2013-08-05 18:56:00,66.8,53.6,30.04,SSE,157,0.0,-999.0,62,-99.99,,,-99.99,MetarLogicWeatherSta,2013-08-05 22:56:00,
2013-08-05 19:01:00,66.7,53.8,30.04,SSE,157,0.0,-999.0,62,-99.99,,,-99.99,MetarLogicWeatherSta,2013-08-05 23:01:00,
2013-08-05 19:06:00,66.6,53.9,30.05,SSE,157,0.0,-999.0,63,-99.99,,,-99.99,MetarLogicWeatherSta,2013-08-05 23:06:00,
2013-08-05 19:11:00,66.3,53.5,30.05,SSE,157,0.0,-999.0,63,-99.99,,,-99.99,MetarLogicWeatherSta,2013-08-05 23:11:00,
2013-08-05 19:16:00,66.3,53.5,30.05,SSE,157,0.0,-999.0,63,-99.99,,,-99.99,MetarLogicWeatherSta,2013-08-05 23:16:00,
2013-08-05 19:21:00,66.1,53.2,30.04,SSE,157,0.0,-999.0,62,-99.99,,,-99.99,MetarLogicWeatherSta,2013-08-05 23:21:00,
2013-08-05 19:26:00,66.0,53.8,30.04,South,180,0.0,-999.0,64,-99.99,,,-99.99,MetarLogicWeatherSta,2013-08-05 23:26:00,
2013-08-05 19:31:00,65.6,53.2,30.04,SSE,157,0.0,-999.0,63,-99.99,,,-99.99,MetarLogicWeatherSta,2013-08-05 23:31:00,
2013-08-05 19:36:00,65.5,53.5,30.04,SSE,157,0.0,-999.0,64,-99.99,,,-99.99,MetarLogicWeatherSta,2013-08-05 23:36:00,
2013-08-05 19:41:00,65.1,54.0,30.04,SSE,157,0.0,-999.0,66,-99.99,,,-99.99,MetarLogicWeatherSta,2013-08-05 23:41:00,
2013-08-05 19:46:00,65.1,54.4,30.04,SSE,157,0.0,-999.0,67,-99.99,,,-99.99,MetarLogicWeatherSta,2013-08-05 23:46:00,
2013-08-05 19:51:00,65.2,54.8,30.04,SSE,157,0.0,-999.0,68,-99.99,,,-99.99,MetarLogicWeatherSta,2013-08-05 23:51:00,
2013-08-05 19:56:00,64.5,54.7,30.05,SSE,157,0.0,-999.0,70,-99.99,,,-99.99,MetarLogicWeatherSta,2013-08-05 23:56:00,
2013-08-05 20:01:00,64.1,54.8,30.05,SSE,157,0.0,-999.0,71,-99.99,,,-99.99,MetarLogicWeatherSta,2013-08-06 00:01:00,
2013-08-05 20:06:00,63.9,54.8,30.04,SSE,157,0.0,-999.0,71,-99.99,,,-99.99,MetarLogicWeatherSta,2013-08-06 00:06:00,
2013-08-05 20:11:00,63.6,54.6,30.04,SSE,157,0.0,-999.0,72,-99.99,,,-99.99,MetarLogicWeatherSta,2013-08-06 00:11:00,
2013-08-05 20:16:00,63.0,54.2,30.04,SSE,157,0.0,-999.0,72,-99.99,,,-99.99,MetarLogicWeatherSta,2013-08-06 00:16:00,
2013-08-05 20:22:00,62.9,54.8,30.04,SSW,199,0.0,0.0,74,-99.99,,,-99.99,MetarLogicWeatherSta,2013-08-06 00:22:00,
2013-08-05 20:27:00,62.6,54.5,30.04,South,180,0.0,0.0,74,-99.99,,,-99.99,MetarLogicWeatherSta,2013-08-06 00:27:00,
2013-08-05 20:33:00,62.3,54.2,30.04,SSE,157,0.0,-999.0,74,-99.99,,,-99.99,MetarLogicWeatherSta,2013-08-06 00:33:00,
2013-08-05 20:38:00,61.9,54.0,30.05,SSE,157,0.0,-999.0,75,-99.99,,,-99.99,MetarLogicWeatherSta,2013-08-06 00:38:00,
2013-08-05 20:43:00,61.4,53.7,30.04,SSE,157,0.0,-999.0,75,-99.99,,,-99.99,MetarLogicWeatherSta,2013-08-06 00:43:00,
2013-08-05 20:48:00,61.1,53.5,30.05,SSE,157,0.0,-999.0,75,-99.99,,,-99.99,MetarLogicWeatherSta,2013-08-06 00:48:00,
2013-08-05 20:53:00,60.9,53.6,30.05,South,180,0.0,-999.0,76,-99.99,,,-99.99,MetarLogicWeatherSta,2013-08-06 00:53:00,
2013-08-05 20:58:00,60.2,53.5,30.05,South,180,0.0,-999.0,78,-99.99,,,-99.99,MetarLogicWeatherSta,2013-08-06 00:58:00,
2013-08-05 21:03:00,59.5,52.9,30.05,South,180,0.0,-999.0,78,-99.99,,,-99.99,MetarLogicWeatherSta,2013-08-06 01:03:00,
2013-08-05 21:08:00,59.2,53.0,30.05,SSE,157,0.0,-999.0,79,-99.99,,,-99.99,MetarLogicWeatherSta,2013-08-06 01:08:00,
2013-08-05 21:12:00,58.6,52.7,30.05,SSE,157,0.0,-999.0,80,-99.99,,,-99.99,MetarLogicWeatherSta,2013-08-06 01:12:00,
2013-08-05 21:17:00,58.2,52.4,30.04,South,180,0.0,-999.0,80,-99.99,,,-99.99,MetarLogicWeatherSta,2013-08-06 01:17:00,
2013-08-05 21:22:00,57.7,52.2,30.05,SSE,157,0.0,-999.0,81,-99.99,,,-99.99,MetarLogicWeatherSta,2013-08-06 01:22:00,
2013-08-05 21:27:00,57.5,52.2,30.05,South,180,0.0,-999.0,82,-99.99,,,-99.99,MetarLogicWeatherSta,2013-08-06 01:27:00,
2013-08-05 21:33:00,57.4,52.2,30.05,SSE,157,0.0,-999.0,82,-99.99,,,-99.99,MetarLogicWeatherSta,2013-08-06 01:33:00,
2013-08-05 21:38:00,56.9,51.9,30.05,South,180,0.0,-999.0,83,-99.99,,,-99.99,MetarLogicWeatherSta,2013-08-06 01:38:00,
2013-08-05 21:43:00,56.7,51.8,30.05,SSE,157,0.0,-999.0,83,-99.99,,,-99.99,MetarLogicWeatherSta,2013-08-06 01:43:00,
2013-08-05 21:48:00,56.4,51.8,30.05,SSE,157,0.0,-999.0,84,-99.99,,,-99.99,MetarLogicWeatherSta,2013-08-06 01:48:00,
2013-08-05 21:53:00,56.1,51.8,30.05,SSE,157,0.0,-999.0,85,-99.99,,,-99.99,MetarLogicWeatherSta,2013-08-06 01:53:00,
2013-08-05 21:58:00,55.8,51.6,30.05,SSE,157,0.0,-999.0,85,-99.99,,,-99.99,MetarLogicWeatherSta,2013-08-06 01:58:00,
2013-08-05 22:03:00,55.8,51.6,30.05,SSE,157,0.0,-999.0,85,-99.99,,,-99.99,MetarLogicWeatherSta,2013-08-06 02:03:00,
2013-08-05 22:08:00,55.4,51.4,30.05,SSE,157,0.0,-999.0,86,-99.99,,,-99.99,MetarLogicWeatherSta,2013-08-06 02:08:00,
2013-08-05 22:13:00,55.4,51.3,30.05,SSE,157,0.0,-999.0,85,-99.99,,,-99.99,MetarLogicWeatherSta,2013-08-06 02:13:00,
2013-08-05 22:18:00,55.1,51.3,30.05,SSE,157,0.0,-999.0,86,-99.99,,,-99.99,MetarLogicWeatherSta,2013-08-06 02:18:00,
2013-08-05 22:23:00,55.1,51.5,30.04,SSE,157,0.0,-999.0,87,-99.99,,,-99.99,MetarLogicWeatherSta,2013-08-06 02:23:00,
2013-08-05 22:28:00,54.9,51.4,30.05,SSE,157,0.0,-999.0,87,-99.99,,,-99.99,MetarLogicWeatherSta,2013-08-06 02:28:00,
2013-08-05 22:33:00,54.7,51.0,30.05,SSE,157,0.0,-999.0,87,-99.99,,,-99.99,MetarLogicWeatherSta,2013-08-06 02:33:00,
2013-08-05 22:38:00,54.6,51.0,30.04,SSE,157,0.0,-999.0,87,-99.99,,,-99.99,MetarLogicWeatherSta,2013-08-06 02:38:00,
2013-08-05 22:43:00,54.7,51.3,30.04,SSE,157,0.0,-999.0,88,-99.99,,,-99.99,MetarLogicWeatherSta,2013-08-06 02:43:00,
2013-08-05 22:48:00,54.2,50.9,30.04,SSE,157,0.0,-999.0,88,-99.99,,,-99.99,MetarLogicWeatherSta,2013-08-06 02:48:00,
2013-08-05 22:53:00,54.3,51.0,30.04,SSE,157,0.0,-999.0,88,-99.99,,,-99.99,MetarLogicWeatherSta,2013-08-06 02:53:00,
2013-08-05 22:58:00,54.0,51.0,30.04,SSE,157,0.0,-999.0,89,-99.99,,,-99.99,MetarLogicWeatherSta,2013-08-06 02:58:00,
2013-08-05 23:03:00,54.0,51.0,30.03,SSE,157,0.0,-999.0,89,-99.99,,,-99.99,MetarLogicWeatherSta,2013-08-06 03:03:00,
2013-08-05 23:08:00,53.8,50.7,30.03,SSE,157,0.0,-999.0,88,-99.99,,,-99.99,MetarLogicWeatherSta,2013-08-06 03:08:00,
2013-08-05 23:14:00,53.7,50.5,30.04,SSE,157,0.0,-999.0,88,-99.99,,,-99.99,MetarLogicWeatherSta,2013-08-06 03:14:00,
2013-08-05 23:19:00,53.4,50.4,30.04,SSE,157,0.0,-999.0,89,-99.99,,,-99.99,MetarLogicWeatherSta,2013-08-06 03:19:00,
2013-08-05 23:24:00,53.3,50.4,30.03,SSE,157,0.0,-999.0,89,-99.99,,,-99.99,MetarLogicWeatherSta,2013-08-06 03:24:00,
2013-08-05 23:29:00,53.3,50.5,30.03,SSE,157,0.0,-999.0,90,-99.99,,,-99.99,MetarLogicWeatherSta,2013-08-06 03:29:00,
2013-08-05 23:34:00,53.3,50.4,30.04,SSE,157,0.0,-999.0,89,-99.99,,,-99.99,MetarLogicWeatherSta,2013-08-06 03:34:00,
2013-08-05 23:39:00,53.3,50.6,30.03,SSE,157,0.0,-999.0,90,-99.99,,,-99.99,MetarLogicWeatherSta,2013-08-06 03:39:00,
2013-08-05 23:44:00,53.4,50.7,30.03,SSE,157,0.0,-999.0,90,-99.99,,,-99.99,MetarLogicWeatherSta,2013-08-06 03:44:00,
2013-08-05 23:49:00,53.5,50.9,30.03,SSE,157,0.0,-999.0,90,-99.99,,,-99.99,MetarLogicWeatherSta,2013-08-06 03:49:00,
2013-08-05 23:54:00,53.3,50.7,30.04,SSE,157,0.0,-999.0,90,-99.99,,,-99.99,MetarLogicWeatherSta,2013-08-06 03:54:00,
2013-08-05 23:59:00,53.3,50.7,30.03,SSE,157,0.0,-999.0,90,-99.99,,,-99.99,MetarLogicWeatherSta,2013-08-06 03:59:00,